Tamalpais — WDF4177 — position and weather

sailwx.info

Track history (hours):
 
Tides and Currents Weather Stations Pressure Air Temp Water Temp Dewpoint Dewpoint Depression Visibility Wind Speed Wind Dir Waves Ship Positions

Tamalpais

Owner: Angel Island-Tiburon Ferry, Tiburon, CA. More information available from US FCC via Universal Licensing System and Coast Guard Vessel Documentation Center.

Last reported at 2018-Jul-15 00:24 UTC. Time now 2018-Jul-17 05:19 UTC.
Position N 37°52' W 122°27'.

Length 18 m.

Type: Passenger vessel. MMSI: 367448870.

Date/timePositionNaut miles runAvg speedWind from/ knotsBaromVisibWave heightAir tempDewpointWater temp
2018-Jul-15 00:24N 37°52' W 122°27'0 0.0
2018-Jul-15 00:00N 37°52' W 122°27'0 0.0
2018-Jul-14 23:30N 37°52' W 122°27'2 3.5
2018-Jul-14 23:00N 37°52' W 122°25'4 7.2
2018-Jul-14 22:30N 37°49' W 122°28'3 5.6
2018-Jul-14 22:00N 37°52' W 122°29'1 2.9
2018-Jul-14 21:29N 37°52' W 122°27'0 0.0
2018-Jul-14 20:59N 37°52' W 122°27'0 0.0
2018-Jul-14 20:29N 37°52' W 122°27'0 0.0
2018-Jul-14 19:59N 37°52' W 122°27'0 0.0
2018-Jul-14 19:29N 37°52' W 122°27'0 0.0
2018-Jul-14 19:00N 37°52' W 122°27'510.6
2018-Jul-14 18:30N 37°49' W 122°32'4 5.0
2018-Jul-14 17:46N 37°48' W 122°37'0 1.8
2018-Jul-14 17:30N 37°49' W 122°37'3 5.8
2018-Jul-14 17:00N 37°48' W 122°33'5 9.8
2018-Jul-14 16:30N 37°51' W 122°27'1 2.8
2018-Jul-14 15:58N 37°52' W 122°27'0 0.0
2018-Jul-14 00:01N 37°52' W 122°27'0 0.0
2018-Jul-14 00:00N 37°52' W 122°27'5 9.0
2018-Jul-13 23:30N 37°49' W 122°31'5 9.3
2018-Jul-13 22:59N 37°49' W 122°37'0 0.5
2018-Jul-13 22:24N 37°49' W 122°37'0 0.5
2018-Jul-13 21:50N 37°48' W 122°37'0 1.0
2018-Jul-13 21:30N 37°49' W 122°37'4 0.8
2018-Jul-13 16:37N 37°51' W 122°41'1 2.6
2018-Jul-13 16:21N 37°51' W 122°40'1 2.6
2018-Jul-13 15:58N 37°50' W 122°39'5 4.4
2018-Jul-13 14:50N 37°49' W 122°33'410.9
2018-Jul-13 14:30N 37°50' W 122°28'  
2018-Jul-07 23:37N 37°52' W 122°27'0 1.4
2018-Jul-07 23:26N 37°52' W 122°27'2 5.1
2018-Jul-07 23:00N 37°51' W 122°25'3 7.0
2018-Jul-07 22:30N 37°49' W 122°29'2 4.9
2018-Jul-07 22:00N 37°52' W 122°29'1 2.8
2018-Jul-07 21:28N 37°52' W 122°27'0 0.0
2018-Jul-07 20:59N 37°52' W 122°27'0 0.0
2018-Jul-07 20:29N 37°52' W 122°27'0 0.0
2018-Jul-07 19:59N 37°52' W 122°27'0 0.0
2018-Jul-07 19:29N 37°52' W 122°27'0 0.0
2018-Jul-07 18:59N 37°52' W 122°27'0 0.0
2018-Jul-07 18:28N 37°52' W 122°27'4 9.0
2018-Jul-07 18:00N 37°49' W 122°30'2 4.7
2018-Jul-07 17:30N 37°48' W 122°33'2 4.6
2018-Jul-07 17:00N 37°49' W 122°30'2 4.9
2018-Jul-07 16:30N 37°50' W 122°28'2 3.5
2018-Jul-07 15:58N 37°52' W 122°27'  
2018-Jul-05 06:08N 37°52' W 122°27'0 0.0
2018-Jul-05 05:59N 37°52' W 122°27'0 0.0
2018-Jul-05 05:29N 37°52' W 122°27'3 5.9
2018-Jul-05 05:00N 37°50' W 122°25'1 1.7
2018-Jul-05 04:30N 37°49' W 122°25'3 5.3
2018-Jul-05 04:00N 37°49' W 122°28'3 5.5
2018-Jul-05 03:28N 37°52' W 122°27'0 0.0
2018-Jul-05 02:58N 37°52' W 122°27'0 0.0
2018-Jul-05 02:28N 37°52' W 122°27'0 0.0
2018-Jul-05 02:00N 37°52' W 122°27'  
Track history (hours):
 
Tides and Currents Weather Stations Pressure Air Temp Water Temp Dewpoint Dewpoint Depression Visibility Wind Speed Wind Dir Waves Ship Positions

Tamalpais

Owner: Angel Island-Tiburon Ferry, Tiburon, CA. More information available from US FCC via Universal Licensing System and Coast Guard Vessel Documentation Center.

Last reported at 2018-Jul-15 00:24 UTC. Time now 2018-Jul-17 05:19 UTC.
Position N 37°52' W 122°27'.

Length 18 m.

Type: Passenger vessel. MMSI: 367448870.

Date/timePositionNaut miles runAvg speedWind from/ knotsBaromVisibWave heightAir tempDewpointWater temp
2018-Jul-15 00:24N 37°52' W 122°27'0 0.0
2018-Jul-15 00:00N 37°52' W 122°27'0 0.0
2018-Jul-14 23:30N 37°52' W 122°27'2 3.5
2018-Jul-14 23:00N 37°52' W 122°25'4 7.2
2018-Jul-14 22:30N 37°49' W 122°28'3 5.6
2018-Jul-14 22:00N 37°52' W 122°29'1 2.9
2018-Jul-14 21:29N 37°52' W 122°27'0 0.0
2018-Jul-14 20:59N 37°52' W 122°27'0 0.0
2018-Jul-14 20:29N 37°52' W 122°27'0 0.0
2018-Jul-14 19:59N 37°52' W 122°27'0 0.0
2018-Jul-14 19:29N 37°52' W 122°27'0 0.0
2018-Jul-14 19:00N 37°52' W 122°27'510.6
2018-Jul-14 18:30N 37°49' W 122°32'4 5.0
2018-Jul-14 17:46N 37°48' W 122°37'0 1.8
2018-Jul-14 17:30N 37°49' W 122°37'3 5.8
2018-Jul-14 17:00N 37°48' W 122°33'5 9.8
2018-Jul-14 16:30N 37°51' W 122°27'1 2.8
2018-Jul-14 15:58N 37°52' W 122°27'0 0.0
2018-Jul-14 00:01N 37°52' W 122°27'0 0.0
2018-Jul-14 00:00N 37°52' W 122°27'5 9.0
2018-Jul-13 23:30N 37°49' W 122°31'5 9.3
2018-Jul-13 22:59N 37°49' W 122°37'0 0.5
2018-Jul-13 22:24N 37°49' W 122°37'0 0.5
2018-Jul-13 21:50N 37°48' W 122°37'0 1.0
2018-Jul-13 21:30N 37°49' W 122°37'4 0.8
2018-Jul-13 16:37N 37°51' W 122°41'1 2.6
2018-Jul-13 16:21N 37°51' W 122°40'1 2.6
2018-Jul-13 15:58N 37°50' W 122°39'5 4.4
2018-Jul-13 14:50N 37°49' W 122°33'410.9
2018-Jul-13 14:30N 37°50' W 122°28'  
2018-Jul-07 23:37N 37°52' W 122°27'0 1.4
2018-Jul-07 23:26N 37°52' W 122°27'2 5.1
2018-Jul-07 23:00N 37°51' W 122°25'3 7.0
2018-Jul-07 22:30N 37°49' W 122°29'2 4.9
2018-Jul-07 22:00N 37°52' W 122°29'1 2.8
2018-Jul-07 21:28N 37°52' W 122°27'0 0.0
2018-Jul-07 20:59N 37°52' W 122°27'0 0.0
2018-Jul-07 20:29N 37°52' W 122°27'0 0.0
2018-Jul-07 19:59N 37°52' W 122°27'0 0.0
2018-Jul-07 19:29N 37°52' W 122°27'0 0.0
2018-Jul-07 18:59N 37°52' W 122°27'0 0.0
2018-Jul-07 18:28N 37°52' W 122°27'4 9.0
2018-Jul-07 18:00N 37°49' W 122°30'2 4.7
2018-Jul-07 17:30N 37°48' W 122°33'2 4.6
2018-Jul-07 17:00N 37°49' W 122°30'2 4.9
2018-Jul-07 16:30N 37°50' W 122°28'2 3.5
2018-Jul-07 15:58N 37°52' W 122°27'  
2018-Jul-05 06:08N 37°52' W 122°27'0 0.0
2018-Jul-05 05:59N 37°52' W 122°27'0 0.0
2018-Jul-05 05:29N 37°52' W 122°27'3 5.9
2018-Jul-05 05:00N 37°50' W 122°25'1 1.7
2018-Jul-05 04:30N 37°49' W 122°25'3 5.3
2018-Jul-05 04:00N 37°49' W 122°28'3 5.5
2018-Jul-05 03:28N 37°52' W 122°27'0 0.0
2018-Jul-05 02:58N 37°52' W 122°27'0 0.0
2018-Jul-05 02:28N 37°52' W 122°27'0 0.0
2018-Jul-05 02:00N 37°52' W 122°27'  

Dump ship's entire track history